Aérodrome :
LOGIN :

S'inscrire | Disclaimer

   EN    FR    IT 

 










Légende :    VFR   VFR Marginal   IFR   IFR Intensif   IFR Très Intensif
Visi : 
Plafond : 
>= 8 km
>= 3000ft
5 à 8 km
1000 à 3000 ft
1500m à 5 km
500 à 1000 ft
800 à 1500m
200 à 500 ft
< 800m
< 200 ft
Symboles :   Orages  Brouillard  Fortes neiges  Fortes précipitations  Vent > 20 kt
SIGMETs :   Divers  Orages  Givrage  Turbulence  Onde Orograph.  Cendres Volcan.






- Altitude de l'aérodrome : 157 ft
- Code IATA : LIL


LFQQ - Lille Lesquin

DERNIER METAR :
  • 140030Z AUTO 13012KT 9999 BKN017 OVC210 05/04 Q0995 BECMG BKN013

METARs EXPIRÉS :
  • 140000Z AUTO 13012KT CAVOK 05/04 Q0995 BECMG BKN013
  • 132330Z AUTO 13011KT CAVOK 05/04 Q0996 BECMG BKN013
  • 132300Z AUTO 13011KT 100V160 CAVOK 05/04 Q0996 NOSIG
  • 132230Z AUTO 14010KT 9999 FEW009 SCT110 BKN230 05/04 Q0996 BECMG 20005KT
  • 132200Z AUTO 13009KT 9999 FEW009 05/04 Q0997 NOSIG

TAF TAF LFQQ
Valide du 14 à 00h jusqu'au 15 à 06h UTC


132300Z 1400/1506 14012KT 9999 BKN030
BECMG 1401/1403 BKN013
TEMPO 1403/1407 3000 RA BKN008 OVC013
BECMG 1409/1412 BKN020
BECMG 1418/1421 VRB03KT
TEMPO 1500/1506 3000 RA OVC005
ATIS : +33 3 20 16 19 54



MET'MAP, la Météo Aéronautique d'un coup d'oeil ! - Copyright ORBIFLY Décembre 2007 - Disclaimer

ORBIFLY MET'MAP TEAM :

Programmation & Développement : Alexandra Zaïnal
Conception & Développement : Baudouin d'Aumeries
Co-Programmation & Développement : Marc-Olivier Méhu
Soutien technique & logistique : Manuel Goepfert

Contact : metmap@orbifly.com




SOURCES & CREDITS :

   NOAA